Time,TemperatureF,DewpointF,PressureIn,WindDirection,WindDirectionDegrees,WindSpeedMPH,WindSpeedGustMPH,Humidity,HourlyPrecipIn,Conditions,Clouds,dailyrainin,SoftwareType,DateUTC
2013-07-15 00:01:00,73.6,67.4,29.98,NE,50,0.0,0.0,81,0.00,,FEW080,0.00,VWS V14.01,2013-07-15 04:01:00,
2013-07-15 00:02:00,73.6,67.4,29.98,NE,49,0.0,0.0,81,0.00,,FEW080,0.00,VWS V14.01,2013-07-15 04:02:00,
2013-07-15 00:03:00,73.6,67.4,29.98,NE,50,0.0,0.0,81,0.00,,FEW080,0.00,VWS V14.01,2013-07-15 04:03:00,
2013-07-15 00:08:00,73.9,68.1,29.98,NE,50,0.0,0.0,82,0.00,,FEW080,0.00,VWS V14.01,2013-07-15 04:08:00,
2013-07-15 00:10:00,73.9,67.8,29.98,NE,50,0.0,0.0,81,0.00,,FEW080,0.00,VWS V14.01,2013-07-15 04:10:00,
2013-07-15 00:11:00,73.8,67.6,29.98,NE,49,0.0,0.0,81,0.00,,FEW080,0.00,VWS V14.01,2013-07-15 04:11:00,
2013-07-15 00:16:00,73.9,67.8,29.98,NE,50,0.0,0.0,81,0.00,,FEW080,0.00,VWS V14.01,2013-07-15 04:16:00,
2013-07-15 00:21:00,74.1,67.9,29.98,NE,49,0.0,0.0,81,0.00,,FEW080,0.00,VWS V14.01,2013-07-15 04:21:00,
2013-07-15 00:26:00,73.9,67.8,29.98,NE,50,0.0,0.0,81,0.00,,FEW080,0.00,VWS V14.01,2013-07-15 04:26:00,
2013-07-15 00:31:00,73.8,67.9,29.98,NE,50,0.0,0.0,82,0.00,,FEW080,0.00,VWS V14.01,2013-07-15 04:31:00,
2013-07-15 00:36:00,73.9,68.5,29.98,NE,50,0.0,0.0,83,0.00,,SCT080,0.00,VWS V14.01,2013-07-15 04:36:00,
2013-07-15 00:41:00,74.1,68.6,29.98,NE,50,0.0,0.0,83,0.00,,SCT080,0.00,VWS V14.01,2013-07-15 04:41:00,
2013-07-15 00:46:00,74.3,68.8,29.98,NE,50,0.0,0.0,83,0.00,,SCT080,0.00,VWS V14.01,2013-07-15 04:46:00,
2013-07-15 00:51:00,74.3,68.8,29.98,NE,49,0.0,0.0,83,0.00,,SCT080,0.00,VWS V14.01,2013-07-15 04:51:00,
2013-07-15 00:56:00,74.3,68.8,29.98,SW,219,0.0,0.0,83,0.00,,SCT080,0.00,VWS V14.01,2013-07-15 04:56:00,
2013-07-15 01:01:00,73.9,68.5,29.98,SW,220,0.0,0.0,83,0.00,,SCT080,0.00,VWS V14.01,2013-07-15 05:01:00,
2013-07-15 01:06:00,74.1,68.6,29.98,SW,220,0.0,0.0,83,0.00,,SCT080,0.00,VWS V14.01,2013-07-15 05:06:00,
2013-07-15 01:12:00,74.3,68.8,29.98,SW,219,0.0,0.0,83,0.00,,SCT080,0.00,VWS V14.01,2013-07-15 05:12:00,
2013-07-15 01:17:00,74.3,68.8,29.98,SW,220,0.0,0.0,83,0.00,,SCT080,0.00,VWS V14.01,2013-07-15 05:17:00,
2013-07-15 01:22:00,74.1,68.6,29.98,SW,219,0.0,0.0,83,0.00,,SCT080,0.00,VWS V14.01,2013-07-15 05:22:00,
2013-07-15 01:27:00,73.8,68.3,29.98,SW,219,0.0,0.0,83,0.00,,SCT080,0.00,VWS V14.01,2013-07-15 05:27:00,
2013-07-15 01:32:00,73.9,68.8,29.98,SW,220,0.0,0.0,84,0.00,,SCT080,0.00,VWS V14.01,2013-07-15 05:32:00,
2013-07-15 01:37:00,73.9,68.8,29.98,SW,220,0.0,0.0,84,0.00,,SCT080,0.00,VWS V14.01,2013-07-15 05:37:00,
2013-07-15 01:42:00,73.6,68.1,29.98,SW,228,0.0,0.0,83,0.00,,SCT080,0.00,VWS V14.01,2013-07-15 05:42:00,
2013-07-15 01:47:00,73.6,68.4,29.98,SW,232,0.0,0.0,84,0.00,,SCT080,0.00,VWS V14.01,2013-07-15 05:47:00,
2013-07-15 01:52:00,73.8,69.0,29.98,SW,236,0.0,3.6,85,0.00,,SCT080,0.00,VWS V14.01,2013-07-15 05:52:00,
2013-07-15 01:57:00,73.6,68.8,29.98,SW,223,0.0,0.0,85,0.00,,SCT080,0.00,VWS V14.01,2013-07-15 05:57:00,
2013-07-15 02:02:00,73.6,68.8,29.98,SW,226,0.0,0.0,85,0.00,,BKN046,0.00,VWS V14.01,2013-07-15 06:02:00,
2013-07-15 02:07:00,73.8,69.3,29.98,SW,236,0.0,0.0,86,0.00,,BKN046,0.00,VWS V14.01,2013-07-15 06:07:00,
2013-07-15 02:12:00,73.8,69.3,29.98,SW,233,0.0,0.0,86,0.00,,BKN046,0.00,VWS V14.01,2013-07-15 06:12:00,
2013-07-15 02:17:00,73.8,69.3,29.98,SW,233,0.0,0.0,86,0.00,,BKN046,0.00,VWS V14.01,2013-07-15 06:17:00,
2013-07-15 02:22:00,73.6,69.1,29.98,SW,233,0.0,0.0,86,0.00,,BKN046,0.00,VWS V14.01,2013-07-15 06:22:00,
2013-07-15 02:27:00,73.6,69.1,29.98,SW,233,0.0,0.0,86,0.00,,BKN046,0.00,VWS V14.01,2013-07-15 06:27:00,
2013-07-15 02:32:00,73.6,69.1,29.98,SW,233,0.0,0.0,86,0.00,,BKN046,0.00,VWS V14.01,2013-07-15 06:32:00,
2013-07-15 02:37:00,73.6,69.1,29.98,SW,233,0.0,0.0,86,0.00,,BKN060,0.00,VWS V14.01,2013-07-15 06:37:00,
2013-07-15 02:42:00,73.6,69.1,29.98,SW,233,0.0,0.0,86,0.00,,BKN060,0.00,VWS V14.01,2013-07-15 06:42:00,
2013-07-15 02:47:00,73.8,69.3,29.98,SW,233,0.0,0.0,86,0.00,,BKN060,0.00,VWS V14.01,2013-07-15 06:47:00,
2013-07-15 02:52:00,73.6,69.5,29.98,SW,233,0.0,0.0,87,0.00,,BKN060,0.00,VWS V14.01,2013-07-15 06:52:00,
2013-07-15 02:57:00,73.6,69.5,29.98,SW,233,0.0,0.0,87,0.00,,BKN060,0.00,VWS V14.01,2013-07-15 06:57:00,
2013-07-15 03:02:00,73.8,69.7,29.98,SW,233,0.0,0.0,87,0.00,,BKN060,0.00,VWS V14.01,2013-07-15 07:02:00,
2013-07-15 03:07:00,73.9,69.5,29.98,SW,233,0.0,0.0,86,0.00,,BKN060,0.00,VWS V14.01,2013-07-15 07:07:00,
2013-07-15 03:12:00,74.1,69.7,29.98,SW,233,0.0,0.0,86,0.00,,BKN060,0.00,VWS V14.01,2013-07-15 07:12:00,
2013-07-15 03:17:00,74.1,69.7,29.98,SW,233,0.0,0.0,86,0.00,,BKN060,0.00,VWS V14.01,2013-07-15 07:17:00,
2013-07-15 03:22:00,74.1,69.7,29.98,SW,233,0.0,0.0,86,0.00,,BKN060,0.00,VWS V14.01,2013-07-15 07:22:00,
2013-07-15 03:27:00,74.1,69.7,29.98,SW,233,0.0,0.0,86,0.00,,BKN060,0.00,VWS V14.01,2013-07-15 07:27:00,
2013-07-15 03:32:00,74.3,69.8,29.98,SW,233,0.0,0.0,86,0.00,,BKN060,0.00,VWS V14.01,2013-07-15 07:32:00,
2013-07-15 03:37:00,74.1,69.7,29.98,SW,214,0.0,0.0,86,0.00,,BKN060,0.00,VWS V14.01,2013-07-15 07:37:00,
2013-07-15 03:42:00,74.3,69.8,29.98,SW,214,0.0,2.2,86,0.00,,BKN060,0.00,VWS V14.01,2013-07-15 07:42:00,
2013-07-15 03:47:00,74.3,69.5,29.98,SW,214,0.0,0.0,85,0.00,,BKN060,0.00,VWS V14.01,2013-07-15 07:47:00,
2013-07-15 03:52:00,74.3,69.5,29.98,SW,214,0.0,0.0,85,0.00,,BKN060,0.00,VWS V14.01,2013-07-15 07:52:00,
2013-07-15 03:57:00,74.1,69.7,29.98,SW,214,0.0,0.0,86,0.00,,BKN060,0.00,VWS V14.01,2013-07-15 07:57:00,
2013-07-15 04:03:00,74.3,69.8,29.98,SW,214,0.0,0.0,86,0.00,,OVC065,0.00,VWS V14.01,2013-07-15 08:03:00,
2013-07-15 04:08:00,74.3,69.8,29.98,SW,214,0.0,0.0,86,0.00,,OVC065,0.00,VWS V14.01,2013-07-15 08:08:00,
2013-07-15 04:13:00,74.3,69.8,29.98,SW,214,0.0,0.0,86,0.00,,OVC065,0.00,VWS V14.01,2013-07-15 08:13:00,
2013-07-15 04:18:00,74.3,69.8,29.98,SW,214,0.0,0.0,86,0.00,,OVC065,0.00,VWS V14.01,2013-07-15 08:18:00,
2013-07-15 04:23:00,74.3,69.8,29.98,SW,214,0.0,0.0,86,0.00,,OVC065,0.00,VWS V14.01,2013-07-15 08:23:00,
2013-07-15 04:28:00,74.3,69.8,29.98,SW,214,0.0,0.0,86,0.00,,OVC065,0.00,VWS V14.01,2013-07-15 08:28:00,
2013-07-15 04:33:00,74.3,69.8,29.98,SW,214,2.7,2.7,86,0.00,,BKN065,0.00,VWS V14.01,2013-07-15 08:33:00,
2013-07-15 04:38:00,74.3,69.8,29.98,SW,214,2.7,3.1,86,0.00,,BKN065,0.00,VWS V14.01,2013-07-15 08:38:00,
2013-07-15 04:43:00,74.3,69.8,29.98,SW,214,0.0,0.0,86,0.00,,BKN065,0.00,VWS V14.01,2013-07-15 08:43:00,
2013-07-15 04:48:00,74.3,69.8,29.98,SW,214,0.0,0.0,86,0.00,,BKN065,0.00,VWS V14.01,2013-07-15 08:48:00,
2013-07-15 04:53:00,74.3,69.5,29.98,SW,214,0.0,0.0,85,0.00,,BKN065,0.00,VWS V14.01,2013-07-15 08:53:00,
2013-07-15 04:58:00,74.3,69.5,29.98,SW,214,0.0,0.0,85,0.00,,BKN065,0.00,VWS V14.01,2013-07-15 08:58:00,
2013-07-15 05:03:00,74.1,69.7,29.98,SW,214,0.0,0.0,86,0.00,,BKN065,0.00,VWS V14.01,2013-07-15 09:03:00,
2013-07-15 05:08:00,74.1,69.7,29.98,SW,214,0.0,0.0,86,0.00,,BKN065,0.00,VWS V14.01,2013-07-15 09:08:00,
2013-07-15 05:13:00,74.3,69.8,29.98,SW,214,0.0,0.0,86,0.00,,BKN065,0.00,VWS V14.01,2013-07-15 09:13:00,
2013-07-15 05:18:00,74.1,69.7,29.98,SW,214,0.0,0.0,86,0.00,,BKN065,0.00,VWS V14.01,2013-07-15 09:18:00,
2013-07-15 05:23:00,74.3,69.8,30.01,SW,214,2.7,3.1,86,0.00,,BKN065,0.00,VWS V14.01,2013-07-15 09:23:00,
2013-07-15 05:28:00,74.3,69.8,30.01,SW,222,2.7,4.0,86,0.00,,BKN065,0.00,VWS V14.01,2013-07-15 09:28:00,
2013-07-15 05:33:00,74.5,69.7,30.01,SW,223,3.1,6.3,85,0.00,,BKN065,0.00,VWS V14.01,2013-07-15 09:33:00,
2013-07-15 05:38:00,74.3,69.5,30.01,SW,216,2.7,3.1,85,0.00,,BKN065,0.00,VWS V14.01,2013-07-15 09:38:00,
2013-07-15 05:43:00,74.3,69.5,30.01,SW,232,3.6,3.6,85,0.00,,BKN065,0.00,VWS V14.01,2013-07-15 09:43:00,
2013-07-15 05:48:00,74.5,69.7,30.01,SW,225,2.7,3.1,85,0.00,,BKN065,0.00,VWS V14.01,2013-07-15 09:48:00,
2013-07-15 05:53:00,74.5,69.7,30.01,SW,225,0.0,2.2,85,0.00,,BKN065,0.00,VWS V14.01,2013-07-15 09:53:00,
2013-07-15 05:58:00,74.5,69.7,30.01,SW,226,2.7,3.1,85,0.00,,BKN065,0.00,VWS V14.01,2013-07-15 09:58:00,
2013-07-15 06:03:00,74.5,70.0,30.01,SW,226,2.7,4.0,86,0.00,,SCT065,0.00,VWS V14.01,2013-07-15 10:03:00,
2013-07-15 06:08:00,74.5,70.0,30.01,SW,223,3.1,4.0,86,0.00,,SCT065,0.00,VWS V14.01,2013-07-15 10:08:00,
2013-07-15 06:13:00,74.5,70.0,30.01,SW,217,2.7,4.0,86,0.00,,SCT065,0.00,VWS V14.01,2013-07-15 10:13:00,
2013-07-15 06:18:00,74.5,70.0,30.01,SW,232,3.6,4.0,86,0.00,,SCT065,0.00,VWS V14.01,2013-07-15 10:18:00,
2013-07-15 06:23:00,74.5,70.0,30.01,SW,221,0.0,2.7,86,0.00,,SCT065,0.00,VWS V14.01,2013-07-15 10:23:00,
2013-07-15 06:28:00,74.5,70.0,30.01,SW,221,3.1,3.6,86,0.00,,SCT065,0.00,VWS V14.01,2013-07-15 10:28:00,
2013-07-15 06:33:00,74.5,70.4,30.01,SW,221,3.1,3.1,87,0.00,,BKN150,0.00,VWS V14.01,2013-07-15 10:33:00,
2013-07-15 06:38:00,74.8,70.4,30.01,SW,221,2.7,3.6,86,0.00,,BKN150,0.00,VWS V14.01,2013-07-15 10:38:00,
2013-07-15 06:43:00,74.7,70.5,30.01,SW,221,0.0,2.2,87,0.00,,BKN150,0.00,VWS V14.01,2013-07-15 10:43:00,
2013-07-15 06:48:00,74.7,70.5,30.01,SW,221,0.0,3.1,87,0.00,,BKN150,0.00,VWS V14.01,2013-07-15 10:48:00,
2013-07-15 06:53:00,74.8,70.7,30.01,SW,221,0.0,0.0,87,0.00,,BKN150,0.00,VWS V14.01,2013-07-15 10:53:00,
2013-07-15 06:58:00,75.0,70.9,30.01,SW,221,2.2,3.6,87,0.00,,BKN150,0.00,VWS V14.01,2013-07-15 10:58:00,
2013-07-15 07:04:00,75.2,70.7,30.01,SW,221,3.6,3.6,86,0.00,,BKN150,0.00,VWS V14.01,2013-07-15 11:04:00,
2013-07-15 07:09:00,75.7,71.6,30.01,SSW,209,4.9,4.9,87,0.00,,BKN150,0.00,VWS V14.01,2013-07-15 11:09:00,
2013-07-15 07:14:00,76.3,72.1,30.01,WSW,251,3.6,5.4,87,0.00,,BKN150,0.00,VWS V14.01,2013-07-15 11:14:00,
2013-07-15 07:19:00,76.5,72.0,30.01,SW,229,5.8,8.1,86,0.00,,BKN150,0.00,VWS V14.01,2013-07-15 11:19:00,
2013-07-15 07:24:00,76.8,72.0,30.01,SW,224,3.1,6.3,85,0.00,,BKN150,0.00,VWS V14.01,2013-07-15 11:24:00,
2013-07-15 07:29:00,77.0,71.8,30.01,SW,230,5.8,5.8,84,0.00,,BKN150,0.00,VWS V14.01,2013-07-15 11:29:00,
2013-07-15 07:34:00,77.5,72.0,30.01,WSW,244,6.3,8.1,83,0.00,,BKN150,0.00,VWS V14.01,2013-07-15 11:34:00,
2013-07-15 07:39:00,77.5,71.2,30.01,West,260,3.1,6.7,81,0.00,,BKN150,0.00,VWS V14.01,2013-07-15 11:39:00,
2013-07-15 07:44:00,77.7,71.4,30.01,WSW,248,3.6,4.0,81,0.00,,BKN150,0.00,VWS V14.01,2013-07-15 11:44:00,
2013-07-15 07:49:00,77.9,71.2,30.01,West,277,4.0,6.3,80,0.00,,BKN150,0.00,VWS V14.01,2013-07-15 11:49:00,
2013-07-15 07:54:00,77.7,70.7,30.01,WNW,292,5.8,5.8,79,0.00,,BKN150,0.00,VWS V14.01,2013-07-15 11:54:00,
2013-07-15 07:59:00,77.5,70.5,30.01,WNW,289,0.0,5.8,79,0.00,,BKN150,0.00,VWS V14.01,2013-07-15 11:59:00,
2013-07-15 08:04:00,77.7,70.7,30.01,WSW,249,3.6,5.8,79,0.00,,BKN150,0.00,VWS V14.01,2013-07-15 12:04:00,
2013-07-15 08:09:00,77.9,70.9,30.01,SW,219,4.0,4.9,79,0.00,,BKN150,0.00,VWS V14.01,2013-07-15 12:09:00,
2013-07-15 08:14:00,77.9,70.9,30.01,SW,219,2.7,6.3,79,0.00,,BKN150,0.00,VWS V14.01,2013-07-15 12:14:00,
2013-07-15 08:19:00,77.9,70.9,30.01,WNW,303,2.2,6.3,79,0.00,,BKN150,0.00,VWS V14.01,2013-07-15 12:19:00,
2013-07-15 08:24:00,78.1,71.0,30.01,WSW,257,2.2,5.8,79,0.00,,BKN150,0.00,VWS V14.01,2013-07-15 12:24:00,
2013-07-15 08:29:00,78.1,70.7,30.01,SW,230,4.0,5.8,78,0.00,,BKN150,0.00,VWS V14.01,2013-07-15 12:29:00,
2013-07-15 08:34:00,78.1,70.7,30.01,WSW,244,2.7,3.6,78,0.00,,BKN150,0.00,VWS V14.01,2013-07-15 12:34:00,
2013-07-15 08:39:00,78.1,70.7,30.04,WSW,255,3.1,4.9,78,0.00,,BKN150,0.00,VWS V14.01,2013-07-15 12:39:00,
2013-07-15 08:44:00,78.3,70.8,30.04,SW,221,3.1,3.1,78,0.00,,BKN150,0.00,VWS V14.01,2013-07-15 12:44:00,
2013-07-15 08:49:00,78.4,71.4,30.04,WSW,239,2.2,3.1,79,0.00,,BKN150,0.00,VWS V14.01,2013-07-15 12:49:00,
2013-07-15 08:54:00,78.6,71.6,30.04,South,169,4.0,4.9,79,0.00,,BKN150,0.00,VWS V14.01,2013-07-15 12:54:00,
2013-07-15 08:59:00,79.0,71.2,30.04,SW,227,3.6,5.4,77,0.00,,BKN150,0.00,VWS V14.01,2013-07-15 12:59:00,
2013-07-15 09:04:00,79.0,71.2,30.04,SW,232,3.6,5.8,77,0.00,,BKN150,0.00,VWS V14.01,2013-07-15 13:04:00,
2013-07-15 09:09:00,79.0,70.8,30.04,West,268,3.6,6.3,76,0.00,,BKN150,0.00,VWS V14.01,2013-07-15 13:09:00,
2013-07-15 09:14:00,79.2,70.6,30.04,SSW,195,2.2,5.8,75,0.00,,BKN150,0.00,VWS V14.01,2013-07-15 13:14:00,
2013-07-15 09:19:00,79.7,71.5,30.04,West,270,3.6,5.4,76,0.00,,BKN150,0.00,VWS V14.01,2013-07-15 13:19:00,
2013-07-15 09:24:00,80.2,71.6,30.04,SSW,202,5.8,6.3,75,0.00,,BKN150,0.00,VWS V14.01,2013-07-15 13:24:00,
2013-07-15 09:29:00,80.6,71.6,30.04,West,265,5.8,7.6,74,0.00,,BKN150,0.00,VWS V14.01,2013-07-15 13:29:00,
2013-07-15 09:34:00,80.2,71.2,30.04,SW,230,2.7,6.3,74,0.00,,BKN070,0.00,VWS V14.01,2013-07-15 13:34:00,
2013-07-15 09:39:00,80.2,71.2,30.01,North,349,0.0,3.6,74,0.00,,BKN070,0.00,VWS V14.01,2013-07-15 13:39:00,
2013-07-15 09:44:00,81.3,72.6,30.01,WSW,258,4.9,6.7,75,0.00,,BKN070,0.00,VWS V14.01,2013-07-15 13:44:00,
2013-07-15 09:49:00,81.7,73.0,30.01,SW,225,5.4,6.3,75,0.00,,BKN070,0.00,VWS V14.01,2013-07-15 13:49:00,
2013-07-15 09:54:00,82.2,73.1,30.01,SSW,205,3.6,8.1,74,0.00,,BKN070,0.00,VWS V14.01,2013-07-15 13:54:00,
2013-07-15 09:59:00,81.3,70.6,30.01,WSW,255,8.1,8.1,70,0.00,,BKN070,0.00,VWS V14.01,2013-07-15 13:59:00,
2013-07-15 10:04:00,81.9,72.4,30.01,SSE,167,2.7,8.1,73,0.00,,BKN070,0.00,VWS V14.01,2013-07-15 14:04:00,
2013-07-15 10:09:00,81.7,71.4,30.01,SW,220,2.7,5.4,71,0.00,,BKN070,0.00,VWS V14.01,2013-07-15 14:09:00,
2013-07-15 10:14:00,82.2,72.7,30.01,NNW,342,2.2,5.4,73,0.00,,BKN070,0.00,VWS V14.01,2013-07-15 14:14:00,
2013-07-15 10:19:00,82.4,72.5,30.01,WSW,250,0.0,6.3,72,0.00,,BKN070,0.00,VWS V14.01,2013-07-15 14:19:00,
2013-07-15 10:25:00,82.2,71.5,30.01,WSW,248,3.6,5.8,70,0.00,,BKN070,0.00,VWS V14.01,2013-07-15 14:25:00,
2013-07-15 10:30:00,82.6,71.8,30.01,SW,217,4.0,6.3,70,0.00,,BKN070,0.00,VWS V14.01,2013-07-15 14:30:00,
2013-07-15 10:35:00,83.3,73.3,30.01,SW,229,4.0,6.7,72,0.00,,BKN070,0.00,VWS V14.01,2013-07-15 14:35:00,
2013-07-15 10:40:00,82.9,71.3,30.01,WNW,292,2.7,4.0,68,0.00,,BKN070,0.00,VWS V14.01,2013-07-15 14:40:00,
2013-07-15 10:45:00,83.8,72.6,30.01,SSW,212,3.6,6.3,69,0.00,,BKN070,0.00,VWS V14.01,2013-07-15 14:45:00,
2013-07-15 10:50:00,83.8,72.6,30.01,WNW,284,3.6,6.3,69,0.00,,BKN070,0.00,VWS V14.01,2013-07-15 14:50:00,
2013-07-15 10:55:00,83.8,72.2,30.01,WSW,256,6.3,6.3,68,0.00,,BKN070,0.00,VWS V14.01,2013-07-15 14:55:00,
2013-07-15 11:00:00,83.7,72.0,30.01,NW,312,4.9,5.4,68,0.00,,BKN070,0.00,VWS V14.01,2013-07-15 15:00:00,
2013-07-15 11:06:00,84.4,71.8,30.01,NNW,340,2.7,4.0,66,0.00,,BKN070,0.00,VWS V14.01,2013-07-15 15:06:00,
2013-07-15 11:12:00,85.1,73.4,30.01,WNW,288,3.6,6.3,68,0.00,,BKN070,0.00,VWS V14.01,2013-07-15 15:12:00,
2013-07-15 11:17:00,84.9,72.8,30.01,North,357,0.0,6.7,67,0.00,,BKN070,0.00,VWS V14.01,2013-07-15 15:17:00,
2013-07-15 11:22:00,85.6,73.9,30.01,SSW,197,3.6,5.8,68,0.00,,BKN070,0.00,VWS V14.01,2013-07-15 15:22:00,
2013-07-15 11:27:00,86.0,73.3,30.01,WNW,303,4.0,4.0,66,0.00,,BKN070,0.00,VWS V14.01,2013-07-15 15:27:00,
2013-07-15 11:32:00,86.0,72.4,30.01,NNW,328,3.6,3.6,64,0.00,,SCT070,0.00,VWS V14.01,2013-07-15 15:32:00,
2013-07-15 11:39:00,85.8,73.2,30.01,NW,320,5.8,5.8,66,0.00,,SCT070,0.00,VWS V14.01,2013-07-15 15:39:00,
2013-07-15 11:44:00,85.5,71.9,30.01,North,3,3.6,6.7,64,0.00,,SCT070,0.00,VWS V14.01,2013-07-15 15:44:00,
2013-07-15 11:49:00,85.6,72.1,30.01,West,273,2.7,4.0,64,0.00,,SCT070,0.00,VWS V14.01,2013-07-15 15:49:00,
2013-07-15 11:54:00,85.5,72.4,30.01,North,2,5.4,8.1,65,0.00,,SCT070,0.00,VWS V14.01,2013-07-15 15:54:00,
2013-07-15 11:59:00,84.7,72.1,30.01,North,353,5.4,6.3,66,0.00,,SCT070,0.00,VWS V14.01,2013-07-15 15:59:00,
2013-07-15 12:04:00,84.2,71.6,30.01,NNE,29,6.3,8.3,66,0.00,,SCT070,0.00,VWS V14.01,2013-07-15 16:04:00,
2013-07-15 12:10:00,84.0,71.9,30.01,NNW,345,3.1,5.8,67,0.00,,SCT070,0.00,VWS V14.01,2013-07-15 16:10:00,
2013-07-15 12:15:00,83.8,71.7,30.01,North,357,3.1,4.0,67,0.00,,SCT070,0.00,VWS V14.01,2013-07-15 16:15:00,
2013-07-15 12:21:00,84.4,72.2,30.01,North,357,3.6,4.5,67,0.00,,SCT070,0.00,VWS V14.01,2013-07-15 16:21:00,
2013-07-15 12:27:00,85.1,72.5,30.01,WSW,240,2.2,4.0,66,0.00,,SCT070,0.00,VWS V14.01,2013-07-15 16:27:00,
2013-07-15 12:32:00,86.2,73.5,30.01,NW,310,4.0,5.4,66,0.00,,SCT070,0.00,VWS V14.01,2013-07-15 16:32:00,
2013-07-15 12:37:00,85.1,72.5,30.01,North,357,5.4,8.1,66,0.00,,SCT070,0.00,VWS V14.01,2013-07-15 16:37:00,
2013-07-15 12:42:00,84.0,72.8,30.01,North,353,4.9,6.3,69,0.00,,SCT070,0.00,VWS V14.01,2013-07-15 16:42:00,
2013-07-15 12:48:00,84.6,73.3,30.01,North,0,3.6,8.1,69,0.00,,SCT070,0.00,VWS V14.01,2013-07-15 16:48:00,
2013-07-15 12:54:00,84.9,72.8,30.01,NNW,344,5.8,7.6,67,0.00,,SCT070,0.00,VWS V14.01,2013-07-15 16:54:00,
2013-07-15 12:59:00,84.9,73.2,30.01,North,2,5.4,7.6,68,0.00,,SCT070,0.00,VWS V14.01,2013-07-15 16:59:00,
2013-07-15 13:04:00,85.6,72.5,30.01,North,4,3.1,6.3,65,0.00,,SCT070,0.00,VWS V14.01,2013-07-15 17:04:00,
2013-07-15 13:09:00,85.1,71.6,30.01,NW,320,4.9,8.7,64,0.00,,SCT070,0.00,VWS V14.01,2013-07-15 17:09:00,
2013-07-15 13:14:00,84.7,71.2,30.01,NNW,345,4.9,9.2,64,0.00,,SCT070,0.00,VWS V14.01,2013-07-15 17:14:00,
2013-07-15 13:19:00,85.6,73.0,30.01,NNW,346,2.7,6.3,66,0.00,,SCT070,0.00,VWS V14.01,2013-07-15 17:19:00,
2013-07-15 13:24:00,86.0,72.4,30.01,North,353,7.6,8.7,64,0.00,,SCT070,0.00,VWS V14.01,2013-07-15 17:24:00,
2013-07-15 13:29:00,86.2,72.6,30.01,NNW,346,4.0,7.6,64,0.00,,SCT070,0.00,VWS V14.01,2013-07-15 17:29:00,
2013-07-15 13:34:00,85.6,72.1,30.01,North,353,5.8,6.3,64,0.00,,SCT075,0.00,VWS V14.01,2013-07-15 17:34:00,
2013-07-15 13:39:00,86.2,72.1,30.01,North,357,4.0,7.6,63,0.00,,SCT075,0.00,VWS V14.01,2013-07-15 17:39:00,
2013-07-15 13:44:00,86.4,72.8,30.01,North,2,5.4,5.4,64,0.00,,SCT075,0.00,VWS V14.01,2013-07-15 17:44:00,
2013-07-15 13:50:00,86.7,72.2,30.01,NNW,344,3.1,5.4,62,0.00,,SCT075,0.00,VWS V14.01,2013-07-15 17:50:00,
2013-07-15 13:55:00,85.6,70.7,30.01,WNW,287,5.8,7.6,61,0.00,,SCT075,0.00,VWS V14.01,2013-07-15 17:55:00,
2013-07-15 14:00:00,85.5,71.0,30.01,NNW,337,3.1,6.3,62,0.00,,SCT075,0.00,VWS V14.01,2013-07-15 18:00:00,
2013-07-15 14:05:00,86.5,72.9,30.01,NNW,329,5.4,5.4,64,0.00,,SCT075,0.00,VWS V14.01,2013-07-15 18:05:00,
2013-07-15 14:10:00,86.7,71.7,29.98,NNW,329,4.9,8.7,61,0.00,,SCT075,0.00,VWS V14.01,2013-07-15 18:10:00,
2013-07-15 14:16:00,86.7,72.2,29.98,NW,321,5.4,6.3,62,0.00,,SCT075,0.00,VWS V14.01,2013-07-15 18:16:00,
2013-07-15 14:21:00,87.1,72.0,29.98,North,353,6.3,8.1,61,0.00,,SCT075,0.00,VWS V14.01,2013-07-15 18:21:00,
2013-07-15 14:26:00,87.3,70.2,29.98,North,353,3.1,10.1,57,0.00,,SCT075,0.00,VWS V14.01,2013-07-15 18:26:00,
2013-07-15 14:31:00,87.4,70.9,29.98,NW,315,8.1,8.1,58,0.00,,SCT075,0.00,VWS V14.01,2013-07-15 18:31:00,
2013-07-15 14:37:00,86.5,70.0,29.98,NNW,348,5.4,8.1,58,0.00,,SCT070,0.00,VWS V14.01,2013-07-15 18:37:00,
2013-07-15 14:42:00,87.1,70.5,29.98,North,3,2.7,8.3,58,0.00,,SCT070,0.00,VWS V14.01,2013-07-15 18:42:00,
2013-07-15 14:48:00,87.4,71.4,29.98,NW,311,4.0,4.0,59,0.00,,SCT070,0.00,VWS V14.01,2013-07-15 18:48:00,
2013-07-15 14:53:00,87.3,69.1,29.98,WNW,294,3.1,3.1,55,0.00,,SCT070,0.00,VWS V14.01,2013-07-15 18:53:00,
2013-07-15 14:58:00,87.6,71.0,29.98,North,357,5.8,5.8,58,0.00,,SCT070,0.00,VWS V14.01,2013-07-15 18:58:00,
2013-07-15 15:04:00,88.2,71.5,29.98,NNE,21,3.1,4.0,58,0.00,,SCT070,0.00,VWS V14.01,2013-07-15 19:04:00,
2013-07-15 15:10:00,87.1,69.0,29.98,NNW,331,4.0,8.3,55,0.00,,SCT070,0.00,VWS V14.01,2013-07-15 19:10:00,
2013-07-15 15:15:00,87.8,70.2,29.98,North,353,4.0,7.6,56,0.00,,SCT070,0.00,VWS V14.01,2013-07-15 19:15:00,
2013-07-15 15:20:00,87.6,70.0,29.98,NNW,334,5.4,8.3,56,0.00,,SCT070,0.00,VWS V14.01,2013-07-15 19:20:00,
2013-07-15 15:25:00,88.0,68.7,29.98,WNW,303,10.1,10.1,53,0.00,,SCT070,0.00,VWS V14.01,2013-07-15 19:25:00,
2013-07-15 15:30:00,88.3,69.6,29.98,NNW,341,2.7,6.3,54,0.00,,SCT070,0.00,VWS V14.01,2013-07-15 19:30:00,
2013-07-15 15:35:00,88.9,70.6,29.98,North,10,6.3,8.1,55,0.00,,SCT070,0.00,VWS V14.01,2013-07-15 19:35:00,
2013-07-15 15:40:00,88.9,70.6,29.98,North,357,3.1,5.8,55,0.00,,SCT070,0.00,VWS V14.01,2013-07-15 19:40:00,
2013-07-15 15:46:00,88.7,69.4,29.98,North,357,3.1,3.1,53,0.00,,SCT070,0.00,VWS V14.01,2013-07-15 19:46:00,
2013-07-15 15:51:00,88.5,68.7,29.98,NNW,335,5.4,8.1,52,0.00,,SCT070,0.00,VWS V14.01,2013-07-15 19:51:00,
2013-07-15 15:57:00,88.2,68.9,29.98,NW,315,3.6,7.6,53,0.00,,SCT070,0.00,VWS V14.01,2013-07-15 19:57:00,
2013-07-15 16:02:00,88.0,68.7,29.98,North,357,7.6,8.7,53,0.00,,SCT070,0.00,VWS V14.01,2013-07-15 20:02:00,
2013-07-15 16:07:00,88.0,68.7,29.98,NNE,22,2.7,8.1,53,0.00,,SCT070,0.00,VWS V14.01,2013-07-15 20:07:00,
2013-07-15 16:13:00,88.2,68.9,29.98,North,4,5.4,9.2,53,0.00,,SCT070,0.00,VWS V14.01,2013-07-15 20:13:00,
2013-07-15 16:18:00,88.9,70.6,29.98,NNE,21,4.9,5.8,55,0.00,,SCT070,0.00,VWS V14.01,2013-07-15 20:18:00,
2013-07-15 16:23:00,88.9,69.6,29.98,NNW,340,8.3,8.7,53,0.00,,SCT070,0.00,VWS V14.01,2013-07-15 20:23:00,
2013-07-15 16:28:00,88.9,69.6,29.98,ENE,74,5.4,7.6,53,0.00,,SCT070,0.00,VWS V14.01,2013-07-15 20:28:00,
2013-07-15 16:34:00,89.2,70.4,29.98,NNW,345,7.6,11.0,54,0.00,,SCT070,0.00,VWS V14.01,2013-07-15 20:34:00,
2013-07-15 16:40:00,89.1,69.7,29.98,North,0,6.7,8.1,53,0.00,,SCT070,0.00,VWS V14.01,2013-07-15 20:40:00,
2013-07-15 16:45:00,89.2,70.4,29.98,North,0,4.0,8.1,54,0.00,,SCT070,0.00,VWS V14.01,2013-07-15 20:45:00,
2013-07-15 16:50:00,89.8,70.9,29.98,North,2,3.1,3.1,54,0.00,,SCT070,0.00,VWS V14.01,2013-07-15 20:50:00,
2013-07-15 16:55:00,89.4,70.1,29.98,North,357,5.4,5.4,53,0.00,,SCT070,0.00,VWS V14.01,2013-07-15 20:55:00,
2013-07-15 17:01:00,89.2,70.4,29.98,NNW,328,4.0,6.3,54,0.00,,SCT070,0.00,VWS V14.01,2013-07-15 21:01:00,
2013-07-15 17:06:00,89.6,70.2,29.98,NNE,26,5.4,5.4,53,0.00,,SCT070,0.00,VWS V14.01,2013-07-15 21:06:00,
2013-07-15 17:11:00,89.2,69.9,29.98,North,357,5.4,8.1,53,0.00,,SCT070,0.00,VWS V14.01,2013-07-15 21:11:00,
2013-07-15 17:16:00,89.6,70.8,29.98,North,5,4.0,4.0,54,0.00,,SCT070,0.00,VWS V14.01,2013-07-15 21:16:00,
2013-07-15 17:22:00,88.9,69.0,29.98,North,7,4.9,8.3,52,0.00,,SCT070,0.00,VWS V14.01,2013-07-15 21:22:00,
2013-07-15 17:27:00,89.1,69.7,29.98,North,353,5.8,7.6,53,0.00,,SCT070,0.00,VWS V14.01,2013-07-15 21:27:00,
2013-07-15 17:32:00,88.9,70.6,29.98,North,1,4.0,6.7,55,0.00,,SCT070,0.00,VWS V14.01,2013-07-15 21:32:00,
2013-07-15 17:37:00,88.5,68.7,29.98,NNW,327,4.9,6.3,52,0.00,,SCT075,0.00,VWS V14.01,2013-07-15 21:37:00,
2013-07-15 17:43:00,88.7,69.9,29.98,North,6,4.0,8.3,54,0.00,,SCT075,0.00,VWS V14.01,2013-07-15 21:43:00,
2013-07-15 17:49:00,88.5,69.2,29.98,North,353,4.9,8.3,53,0.00,,SCT075,0.00,VWS V14.01,2013-07-15 21:49:00,
2013-07-15 17:54:00,88.5,69.2,29.98,NNW,341,6.3,8.7,53,0.00,,SCT075,0.00,VWS V14.01,2013-07-15 21:54:00,
2013-07-15 17:59:00,88.3,69.1,29.98,NW,311,8.3,10.1,53,0.00,,SCT075,0.00,VWS V14.01,2013-07-15 21:59:00,
2013-07-15 18:04:00,88.0,68.2,29.98,North,353,5.8,8.7,52,0.00,,SCT075,0.00,VWS V14.01,2013-07-15 22:04:00,
2013-07-15 18:09:00,88.0,68.2,29.98,North,357,4.9,8.3,52,0.00,,SCT075,0.00,VWS V14.01,2013-07-15 22:09:00,
2013-07-15 18:15:00,87.6,67.8,29.98,North,0,5.8,6.3,52,0.00,,SCT075,0.00,VWS V14.01,2013-07-15 22:15:00,
2013-07-15 18:21:00,87.6,67.3,29.98,North,6,8.1,8.3,51,0.00,,SCT075,0.00,VWS V14.01,2013-07-15 22:21:00,
2013-07-15 18:26:00,87.6,67.3,29.98,NW,315,3.6,6.3,51,0.00,,SCT075,0.00,VWS V14.01,2013-07-15 22:26:00,
2013-07-15 18:33:00,87.3,66.4,29.98,NW,316,5.4,10.5,50,0.00,,SCT075,0.00,VWS V14.01,2013-07-15 22:33:00,
2013-07-15 18:38:00,87.1,65.6,29.98,NNW,329,6.7,8.7,49,0.00,,SCT075,0.00,VWS V14.01,2013-07-15 22:38:00,
2013-07-15 18:43:00,87.3,66.9,29.98,NW,323,3.6,7.6,51,0.00,,SCT075,0.00,VWS V14.01,2013-07-15 22:43:00,
2013-07-15 18:48:00,87.1,66.2,29.98,NNW,346,5.4,8.1,50,0.00,,SCT075,0.00,VWS V14.01,2013-07-15 22:48:00,
2013-07-15 18:55:00,86.9,66.0,29.98,NW,318,5.4,7.6,50,0.00,,SCT075,0.00,VWS V14.01,2013-07-15 22:55:00,
2013-07-15 19:00:00,86.9,66.0,29.98,North,357,3.1,6.3,50,0.00,,SCT075,0.00,VWS V14.01,2013-07-15 23:00:00,
2013-07-15 19:05:00,86.9,66.0,29.98,North,357,3.6,6.7,50,0.00,,SCT075,0.00,VWS V14.01,2013-07-15 23:05:00,
2013-07-15 19:10:00,87.1,66.8,29.98,NNE,16,5.4,5.4,51,0.00,,SCT075,0.00,VWS V14.01,2013-07-15 23:10:00,
2013-07-15 19:15:00,87.1,66.8,29.98,North,350,5.4,5.4,51,0.00,,SCT075,0.00,VWS V14.01,2013-07-15 23:15:00,
2013-07-15 19:20:00,86.4,65.0,29.98,North,0,5.4,6.7,49,0.00,,SCT075,0.00,VWS V14.01,2013-07-15 23:20:00,
2013-07-15 19:25:00,86.5,66.3,29.98,NNW,343,3.6,3.6,51,0.00,,SCT075,0.00,VWS V14.01,2013-07-15 23:25:00,
2013-07-15 19:31:00,86.4,66.1,29.98,North,353,3.6,4.9,51,0.00,,SCT075,0.00,VWS V14.01,2013-07-15 23:31:00,
2013-07-15 19:36:00,86.4,66.1,29.98,NW,326,3.6,5.4,51,0.00,,SCT200,0.00,VWS V14.01,2013-07-15 23:36:00,
2013-07-15 19:41:00,86.2,65.4,29.98,North,357,3.6,3.6,50,0.00,,SCT200,0.00,VWS V14.01,2013-07-15 23:41:00,
2013-07-15 19:46:00,85.6,64.9,29.98,North,0,3.6,5.8,50,0.00,,SCT200,0.00,VWS V14.01,2013-07-15 23:46:00,
2013-07-15 19:51:00,85.6,64.9,29.98,North,1,2.7,3.1,50,0.00,,SCT200,0.00,VWS V14.01,2013-07-15 23:51:00,
2013-07-15 19:56:00,85.6,65.4,29.98,North,357,3.1,3.6,51,0.00,,SCT200,0.00,VWS V14.01,2013-07-15 23:56:00,
2013-07-15 20:03:00,84.6,64.5,29.98,North,357,2.7,3.1,51,0.00,,SCT200,0.00,VWS V14.01,2013-07-16 00:03:00,
2013-07-15 20:08:00,84.2,64.1,29.98,North,357,0.0,2.7,51,0.00,,SCT200,0.00,VWS V14.01,2013-07-16 00:08:00,
2013-07-15 20:14:00,82.6,63.7,29.98,North,357,2.2,2.7,53,0.00,,SCT200,0.00,VWS V14.01,2013-07-16 00:14:00,
2013-07-15 20:20:00,82.2,63.9,29.98,North,357,0.0,2.7,54,0.00,,SCT200,0.00,VWS V14.01,2013-07-16 00:20:00,
2013-07-15 20:25:00,80.8,63.1,29.98,North,357,0.0,0.0,55,0.00,,SCT200,0.00,VWS V14.01,2013-07-16 00:25:00,
2013-07-15 20:30:00,80.1,63.5,29.98,North,357,0.0,0.0,57,0.00,,SCT200,0.00,VWS V14.01,2013-07-16 00:30:00,
2013-07-15 20:35:00,79.3,62.8,29.98,North,357,0.0,0.0,57,0.00,,SCT200,0.00,VWS V14.01,2013-07-16 00:35:00,
2013-07-15 20:40:00,78.8,62.8,29.98,North,357,0.0,0.0,58,0.00,,SCT200,0.00,VWS V14.01,2013-07-16 00:40:00,
2013-07-15 20:45:00,78.1,62.6,29.98,North,357,0.0,0.0,59,0.00,,SCT200,0.00,VWS V14.01,2013-07-16 00:45:00,
2013-07-15 20:51:00,77.7,62.3,29.98,North,357,0.0,0.0,59,0.00,,SCT200,0.00,VWS V14.01,2013-07-16 00:51:00,
2013-07-15 20:57:00,77.2,62.2,29.95,North,357,0.0,0.0,60,0.00,,SCT200,0.00,VWS V14.01,2013-07-16 00:57:00,
2013-07-15 21:02:00,77.2,62.2,29.95,North,357,0.0,0.0,60,0.00,,SCT200,0.00,VWS V14.01,2013-07-16 01:02:00,
2013-07-15 21:08:00,76.5,62.0,29.98,North,357,0.0,0.0,61,0.00,,SCT200,0.00,VWS V14.01,2013-07-16 01:08:00,
2013-07-15 21:13:00,76.3,61.9,29.98,North,357,0.0,0.0,61,0.00,,SCT200,0.00,VWS V14.01,2013-07-16 01:13:00,
2013-07-15 21:18:00,75.6,61.6,29.98,North,357,0.0,0.0,62,0.00,,SCT200,0.00,VWS V14.01,2013-07-16 01:18:00,
2013-07-15 21:23:00,75.2,61.8,29.98,North,357,0.0,0.0,63,0.00,,SCT200,0.00,VWS V14.01,2013-07-16 01:23:00,
2013-07-15 21:28:00,75.0,62.0,29.98,North,357,0.0,0.0,64,0.00,,SCT200,0.00,VWS V14.01,2013-07-16 01:28:00,
2013-07-15 21:33:00,75.0,62.9,29.98,North,357,0.0,0.0,66,0.00,,SCT260,0.00,VWS V14.01,2013-07-16 01:33:00,
2013-07-15 21:39:00,74.8,62.3,29.98,North,357,0.0,0.0,65,0.00,,SCT260,0.00,VWS V14.01,2013-07-16 01:39:00,
2013-07-15 21:44:00,74.8,62.7,29.98,North,357,0.0,0.0,66,0.00,,SCT260,0.00,VWS V14.01,2013-07-16 01:44:00,
2013-07-15 21:49:00,74.7,62.6,29.98,North,357,0.0,0.0,66,0.00,,SCT260,0.00,VWS V14.01,2013-07-16 01:49:00,
2013-07-15 21:54:00,74.1,62.5,29.98,North,357,0.0,0.0,67,0.00,,SCT260,0.00,VWS V14.01,2013-07-16 01:54:00,
2013-07-15 21:59:00,73.8,62.1,29.98,North,357,0.0,0.0,67,0.00,,SCT260,0.00,VWS V14.01,2013-07-16 01:59:00,
2013-07-15 22:04:00,73.8,62.1,29.98,North,357,0.0,0.0,67,0.00,,SCT260,0.00,VWS V14.01,2013-07-16 02:04:00,
2013-07-15 22:11:00,73.2,62.0,29.98,North,357,0.0,0.0,68,0.00,,SCT260,0.00,VWS V14.01,2013-07-16 02:11:00,
2013-07-15 22:16:00,73.6,62.4,29.98,North,357,0.0,0.0,68,0.00,,SCT260,0.00,VWS V14.01,2013-07-16 02:16:00,
2013-07-15 22:21:00,73.9,62.7,29.98,North,357,0.0,0.0,68,0.00,,SCT260,0.00,VWS V14.01,2013-07-16 02:21:00,
2013-07-15 22:27:00,73.6,62.4,29.98,North,357,0.0,0.0,68,0.00,,SCT260,0.00,VWS V14.01,2013-07-16 02:27:00,
2013-07-15 22:32:00,73.6,62.4,29.98,WSW,257,0.0,0.0,68,0.00,,FEW250,0.00,VWS V14.01,2013-07-16 02:32:00,
2013-07-15 22:38:00,73.9,62.3,29.98,SW,224,3.6,3.6,67,0.00,,FEW250,0.00,VWS V14.01,2013-07-16 02:38:00,
2013-07-15 22:43:00,74.1,62.9,29.98,SW,223,2.7,3.1,68,0.00,,FEW250,0.00,VWS V14.01,2013-07-16 02:43:00,
2013-07-15 22:48:00,74.1,62.9,29.98,SW,224,3.1,3.6,68,0.00,,FEW250,0.00,VWS V14.01,2013-07-16 02:48:00,
2013-07-15 22:53:00,74.1,62.9,29.98,SW,224,2.7,4.0,68,0.00,,FEW250,0.00,VWS V14.01,2013-07-16 02:53:00,
2013-07-15 22:58:00,73.9,62.7,29.98,SW,224,0.0,2.7,68,0.00,,FEW250,0.00,VWS V14.01,2013-07-16 02:58:00,
2013-07-15 23:04:00,73.4,62.6,29.98,SW,224,2.7,3.1,69,0.00,,FEW250,0.00,VWS V14.01,2013-07-16 03:04:00,
2013-07-15 23:11:00,72.9,62.5,29.98,SW,224,0.0,2.7,70,0.00,,FEW250,0.00,VWS V14.01,2013-07-16 03:11:00,
2013-07-15 23:16:00,72.9,62.9,29.98,SW,224,0.0,0.0,71,0.00,,FEW250,0.00,VWS V14.01,2013-07-16 03:16:00,
2013-07-15 23:21:00,73.0,63.1,29.98,SW,224,0.0,0.0,71,0.00,,FEW250,0.00,VWS V14.01,2013-07-16 03:21:00,
2013-07-15 23:26:00,73.0,63.5,29.98,SW,224,0.0,0.0,72,0.00,,FEW250,0.00,VWS V14.01,2013-07-16 03:26:00,
2013-07-15 23:32:00,72.7,63.1,29.98,SSW,209,2.7,3.6,72,0.00,,FEW250,0.00,VWS V14.01,2013-07-16 03:32:00,
2013-07-15 23:37:00,72.9,64.1,29.98,SSW,200,2.2,4.0,74,0.00,,FEW250,0.00,VWS V14.01,2013-07-16 03:37:00,
2013-07-15 23:42:00,73.0,64.3,29.98,SSW,200,2.2,3.1,74,0.00,,FEW250,0.00,VWS V14.01,2013-07-16 03:42:00,
2013-07-15 23:48:00,72.9,64.1,29.98,SW,218,0.0,3.1,74,0.00,,FEW250,0.00,VWS V14.01,2013-07-16 03:48:00,
2013-07-15 23:53:00,72.9,64.1,29.98,SW,217,0.0,3.1,74,0.00,,FEW250,0.00,VWS V14.01,2013-07-16 03:53:00,
2013-07-15 23:58:00,72.9,64.1,29.98,SW,218,0.0,0.0,74,0.00,,FEW250,0.00,VWS V14.01,2013-07-16 03:58:00,